createdAt,value
2018-06-04T00:01:28.288Z,19.73
2018-06-04T00:03:59.686Z,19.72
2018-06-04T00:06:30.261Z,19.73
2018-06-04T00:09:01.655Z,19.72
2018-06-04T00:11:32.394Z,19.71
2018-06-04T00:14:03.638Z,19.68
2018-06-04T00:16:34.387Z,19.67
2018-06-04T00:19:05.422Z,19.66
2018-06-04T00:21:36.614Z,19.65
2018-06-04T00:24:07.318Z,19.64
2018-06-04T00:26:38.588Z,19.64
2018-06-04T00:29:09.709Z,19.58
2018-06-04T00:31:40.882Z,19.56
2018-06-04T00:34:11.414Z,19.52
2018-06-04T00:36:42.261Z,19.49
2018-06-04T00:39:13.670Z,19.47
2018-06-04T00:41:44.254Z,19.44
2018-06-04T00:44:15.660Z,19.42
2018-06-04T00:46:50.967Z,19.40
2018-06-04T00:49:20.866Z,19.35
2018-06-04T00:51:50.630Z,19.32
2018-06-04T00:54:20.447Z,19.30
2018-06-04T00:56:50.270Z,19.31
2018-06-04T00:59:21.930Z,19.27
2018-06-04T01:01:52.357Z,19.21
2018-06-04T01:04:23.609Z,19.17
2018-06-04T01:06:54.319Z,19.17
2018-06-04T01:09:25.665Z,19.12
2018-06-04T01:11:56.353Z,19.09
2018-06-04T01:14:27.657Z,19.06
2018-06-04T01:16:58.678Z,19.04
2018-06-04T01:19:29.374Z,19.06
2018-06-04T01:21:59.570Z,19.02
2018-06-04T01:24:30.305Z,19.00
2018-06-04T01:27:00.651Z,18.98
2018-06-04T01:29:31.390Z,18.99
2018-06-04T01:32:01.876Z,18.96
2018-06-04T01:34:32.598Z,18.93
2018-06-04T01:37:03.272Z,18.94
2018-06-04T01:39:34.638Z,18.94
2018-06-04T01:42:05.386Z,18.91
2018-06-04T01:44:36.651Z,18.88
2018-06-04T01:47:07.362Z,18.83
2018-06-04T01:49:38.617Z,18.83
2018-06-04T01:52:09.297Z,18.80
2018-06-04T01:54:40.714Z,18.78
2018-06-04T01:57:11.325Z,18.75
2018-06-04T01:59:42.694Z,18.75
2018-06-04T02:02:13.307Z,18.72
2018-06-04T02:04:44.767Z,18.68
2018-06-04T02:07:15.310Z,18.70
2018-06-04T02:09:46.616Z,18.67
2018-06-04T02:12:17.274Z,18.67
2018-06-04T02:14:48.671Z,18.67
2018-06-04T02:17:18.424Z,18.65
2018-06-04T02:19:49.701Z,18.65
2018-06-04T02:22:20.315Z,18.60
2018-06-04T02:24:51.618Z,18.58
2018-06-04T02:27:22.350Z,18.58
2018-06-04T02:29:53.630Z,18.58
2018-06-04T02:32:23.381Z,18.52
2018-06-04T02:34:53.320Z,18.52
2018-06-04T02:37:24.754Z,18.54
2018-06-04T02:39:55.350Z,18.49
2018-06-04T02:42:27.018Z,18.44
2018-06-04T02:44:57.508Z,18.43
2018-06-04T02:47:28.343Z,18.43
2018-06-04T02:49:59.690Z,18.44
2018-06-04T02:52:30.338Z,18.42
2018-06-04T02:55:01.676Z,18.42
2018-06-04T02:57:32.271Z,18.44
2018-06-04T03:00:03.674Z,18.42
2018-06-04T03:02:34.494Z,18.43
2018-06-04T03:05:05.515Z,18.37
2018-06-04T03:07:36.279Z,18.32
2018-06-04T03:10:07.659Z,18.29
2018-06-04T03:12:38.338Z,18.27
2018-06-04T03:15:09.700Z,18.39
2018-06-04T03:17:40.362Z,18.52
2018-06-04T03:20:11.634Z,18.48
2018-06-04T03:22:42.364Z,18.42
2018-06-04T03:25:13.603Z,18.41
2018-06-04T03:27:44.294Z,18.40
2018-06-04T03:30:15.567Z,18.37
2018-06-04T03:32:45.388Z,18.34
2018-06-04T03:35:16.658Z,18.34
2018-06-04T03:37:47.322Z,18.31
2018-06-04T03:40:18.706Z,18.29
2018-06-04T03:42:49.389Z,18.33
2018-06-04T03:45:20.950Z,18.35
2018-06-04T03:47:51.569Z,18.39
2018-06-04T03:50:22.352Z,18.39
2018-06-04T03:52:57.638Z,18.40
2018-06-04T03:55:28.010Z,18.41
2018-06-04T03:57:57.803Z,18.44
2018-06-04T04:00:28.239Z,18.45
2018-06-04T04:02:58.157Z,18.45
2018-06-04T04:05:28.786Z,18.47
2018-06-04T04:07:58.591Z,18.47
2018-06-04T04:10:29.325Z,18.48
2018-06-04T04:13:00.624Z,18.51
2018-06-04T04:15:31.303Z,18.53
2018-06-04T04:18:01.779Z,18.55
2018-06-04T04:20:32.414Z,18.60
2018-06-04T04:23:03.630Z,18.63
2018-06-04T04:25:34.406Z,18.70
2018-06-04T04:28:05.372Z,18.71
2018-06-04T04:30:36.688Z,18.73
2018-06-04T04:33:07.394Z,18.77
2018-06-04T04:35:38.708Z,18.82
2018-06-04T04:38:09.261Z,18.82
2018-06-04T04:40:40.668Z,18.84
2018-06-04T04:43:11.358Z,18.87
2018-06-04T04:45:42.646Z,18.90
2018-06-04T04:48:13.369Z,18.95
2018-06-04T04:50:44.611Z,18.98
2018-06-04T04:53:15.449Z,19.04
2018-06-04T04:55:46.374Z,19.10
2018-06-04T04:58:16.241Z,19.13
2018-06-04T05:00:47.762Z,19.17
2018-06-04T05:03:18.273Z,19.22
2018-06-04T05:05:49.694Z,19.29
2018-06-04T05:08:20.246Z,19.34
2018-06-04T05:10:51.658Z,19.39
2018-06-04T05:13:22.375Z,19.44
2018-06-04T05:15:53.693Z,19.49
2018-06-04T05:18:24.335Z,19.56
2018-06-04T05:20:55.605Z,19.60
2018-06-04T05:23:26.323Z,19.64
2018-06-04T05:25:57.602Z,19.73
2018-06-04T05:28:28.265Z,19.79
2018-06-04T05:30:59.706Z,19.86
2018-06-04T05:33:30.246Z,19.89
2018-06-04T05:36:01.707Z,19.97
2018-06-04T05:38:32.276Z,20.00
2018-06-04T05:41:03.715Z,20.05
2018-06-04T05:43:34.289Z,20.10
2018-06-04T05:46:05.748Z,20.16
2018-06-04T05:48:36.298Z,20.23
2018-06-04T05:51:07.743Z,20.30
2018-06-04T05:53:38.385Z,20.39
2018-06-04T05:56:08.353Z,20.42
2018-06-04T05:58:39.712Z,20.44
2018-06-04T06:01:10.526Z,20.43
2018-06-04T06:03:41.418Z,20.45
2018-06-04T06:06:12.724Z,20.50
2018-06-04T06:08:43.865Z,20.57
2018-06-04T06:11:14.513Z,20.64
2018-06-04T06:13:45.406Z,20.71
2018-06-04T06:16:15.374Z,20.80
2018-06-04T06:18:46.674Z,20.84
2018-06-04T06:21:17.477Z,20.89
2018-06-04T06:23:48.737Z,20.92
2018-06-04T06:26:19.621Z,20.99
2018-06-04T06:28:54.953Z,21.03
2018-06-04T06:31:24.811Z,21.09
2018-06-04T06:33:55.113Z,21.15
2018-06-04T06:36:24.946Z,21.24
2018-06-04T06:38:55.286Z,21.31
2018-06-04T06:41:25.112Z,21.39
2018-06-04T06:43:55.646Z,21.48
2018-06-04T06:46:26.351Z,21.55
2018-06-04T06:48:57.649Z,21.59
2018-06-04T06:51:28.410Z,21.65
2018-06-04T06:53:59.648Z,21.70
2018-06-04T06:56:30.313Z,21.81
2018-06-04T06:59:01.689Z,21.87
2018-06-04T07:01:31.564Z,21.95
2018-06-04T07:04:02.383Z,22.01
2018-06-04T07:06:33.748Z,22.07
2018-06-04T07:09:04.738Z,22.14
2018-06-04T07:11:35.473Z,22.23
2018-06-04T07:14:06.581Z,22.33
2018-06-04T07:16:37.317Z,22.40
2018-06-04T07:19:08.665Z,22.47
2018-06-04T07:21:39.343Z,22.60
2018-06-04T07:24:10.609Z,22.71
2018-06-04T07:26:41.391Z,22.82
2018-06-04T07:29:12.286Z,22.90
2018-06-04T07:31:51.934Z,22.99
2018-06-04T07:34:21.849Z,23.12
2018-06-04T07:36:51.677Z,23.18
2018-06-04T07:39:22.042Z,23.27
2018-06-04T07:41:51.934Z,23.37
2018-06-04T07:44:21.844Z,23.48
2018-06-04T07:46:51.837Z,23.59
2018-06-04T07:49:21.582Z,23.69
2018-06-04T07:51:51.363Z,23.83
2018-06-04T07:54:21.561Z,23.92
2018-06-04T07:56:52.343Z,24.00
2018-06-04T07:59:23.663Z,24.07
2018-06-04T08:01:54.379Z,24.23
2018-06-04T08:04:25.620Z,24.31
2018-06-04T08:06:56.387Z,24.44
2018-06-04T08:09:27.244Z,24.52
2018-06-04T08:11:58.690Z,24.48
2018-06-04T08:14:29.526Z,24.57
2018-06-04T08:17:00.345Z,24.77
2018-06-04T08:19:31.642Z,24.92
2018-06-04T08:22:02.365Z,25.04
2018-06-04T08:24:33.698Z,25.09
2018-06-04T08:27:04.322Z,25.20
2018-06-04T08:29:35.626Z,25.28
2018-06-04T08:32:06.103Z,25.38
2018-06-04T08:34:36.545Z,25.51
2018-06-04T08:37:07.381Z,25.62
2018-06-04T08:39:38.238Z,25.79
2018-06-04T08:42:09.645Z,25.79
2018-06-04T08:44:40.234Z,25.80
2018-06-04T08:47:11.629Z,25.98
2018-06-04T08:49:42.332Z,26.08
2018-06-04T08:52:12.262Z,26.18
2018-06-04T08:54:43.599Z,26.26
2018-06-04T08:57:14.303Z,26.40
2018-06-04T08:59:45.610Z,26.66
2018-06-04T09:02:16.358Z,26.87
2018-06-04T09:04:53.578Z,27.03
2018-06-04T09:07:23.373Z,27.26
2018-06-04T09:09:53.131Z,27.42
2018-06-04T09:12:23.378Z,27.55
2018-06-04T09:14:53.126Z,27.58
2018-06-04T09:17:23.198Z,27.60
2018-06-04T09:19:53.530Z,27.61
2018-06-04T09:22:24.673Z,27.63
2018-06-04T09:24:55.305Z,27.51
2018-06-04T09:27:26.561Z,27.42
2018-06-04T09:29:57.293Z,27.54
2018-06-04T09:32:28.554Z,27.57
2018-06-04T09:34:59.266Z,27.55
2018-06-04T09:37:30.634Z,27.69
2018-06-04T09:40:01.418Z,27.81
2018-06-04T09:42:32.437Z,27.91
2018-06-04T09:45:03.557Z,28.06
2018-06-04T09:47:34.403Z,28.19
2018-06-04T09:50:05.298Z,28.41
2018-06-04T09:52:35.517Z,28.48
2018-06-04T09:55:06.302Z,28.54
2018-06-04T09:57:37.796Z,28.72
2018-06-04T10:00:08.421Z,28.91
2018-06-04T10:02:39.254Z,29.12
2018-06-04T10:05:10.558Z,29.24
2018-06-04T10:07:41.347Z,29.10
2018-06-04T10:10:12.562Z,29.07
2018-06-04T10:12:43.375Z,29.17
2018-06-04T10:15:14.235Z,29.27
2018-06-04T10:17:45.937Z,29.37
2018-06-04T10:20:16.297Z,29.36
2018-06-04T10:22:47.591Z,29.39
2018-06-04T10:25:18.312Z,29.62
2018-06-04T10:27:49.607Z,29.83
2018-06-04T10:30:20.665Z,30.01
2018-06-04T10:32:50.444Z,30.03
2018-06-04T10:35:21.255Z,30.22
2018-06-04T10:37:52.750Z,30.29
2018-06-04T10:40:23.250Z,30.55
2018-06-04T10:42:54.701Z,30.72
2018-06-04T10:45:25.241Z,30.89
2018-06-04T10:47:56.657Z,30.60
2018-06-04T10:50:27.213Z,30.56
2018-06-04T10:52:58.652Z,30.76
2018-06-04T10:55:29.317Z,30.91
2018-06-04T10:58:00.326Z,30.89
2018-06-04T11:00:31.204Z,30.81
2018-06-04T11:03:02.582Z,31.15
2018-06-04T11:05:33.269Z,31.17
2018-06-04T11:08:04.663Z,31.17
2018-06-04T11:10:34.394Z,31.40
2018-06-04T11:13:05.341Z,31.67
2018-06-04T11:15:36.242Z,31.56
2018-06-04T11:18:08.038Z,31.78
2018-06-04T11:20:38.749Z,31.87
2018-06-04T11:23:09.334Z,31.74
2018-06-04T11:25:39.689Z,31.68
2018-06-04T11:28:10.322Z,31.67
2018-06-04T11:30:41.663Z,31.79
2018-06-04T11:33:12.256Z,31.97
2018-06-04T11:35:43.568Z,32.02
2018-06-04T11:38:14.345Z,31.84
2018-06-04T11:40:45.281Z,31.91
2018-06-04T11:43:17.050Z,32.03
2018-06-04T11:45:47.453Z,32.31
2018-06-04T11:48:18.452Z,32.44
2018-06-04T11:50:49.346Z,32.36
2018-06-04T11:53:20.677Z,31.82
2018-06-04T11:55:51.406Z,32.01
2018-06-04T11:58:22.434Z,32.23
2018-06-04T12:00:54.375Z,32.53
2018-06-04T12:04:27.346Z,32.62
2018-06-04T12:06:57.227Z,33.02
2018-06-04T12:09:26.965Z,33.18
2018-06-04T12:11:56.959Z,33.18
2018-06-04T12:14:26.928Z,33.14
2018-06-04T12:16:57.543Z,33.15
2018-06-04T12:19:27.399Z,32.91
2018-06-04T12:21:57.665Z,32.99
2018-06-04T12:24:27.764Z,33.28
2018-06-04T12:26:57.908Z,33.59
2018-06-04T12:29:27.874Z,33.67
2018-06-04T12:31:57.991Z,33.84
2018-06-04T12:34:28.119Z,34.02
2018-06-04T12:36:57.983Z,33.05
2018-06-04T12:39:27.838Z,33.23
2018-06-04T12:41:58.045Z,33.23
2018-06-04T12:44:28.117Z,33.28
2018-06-04T12:46:58.145Z,33.13
2018-06-04T12:49:27.981Z,33.16
2018-06-04T12:51:57.799Z,33.13
2018-06-04T12:54:27.955Z,33.40
2018-06-04T12:56:57.943Z,33.67
2018-06-04T12:59:27.989Z,33.81
2018-06-04T13:01:57.899Z,33.96
2018-06-04T13:04:28.045Z,34.01
2018-06-04T13:06:58.314Z,34.01
2018-06-04T13:09:28.193Z,34.17
2018-06-04T13:11:58.006Z,34.22
2018-06-04T13:14:27.930Z,34.19
2018-06-04T13:16:58.019Z,34.29
2018-06-04T13:19:28.092Z,34.44
2018-06-04T13:22:04.133Z,34.44
2018-06-04T13:24:34.056Z,34.14
2018-06-04T13:27:04.295Z,34.00
2018-06-04T13:29:34.197Z,33.93
2018-06-04T13:32:04.138Z,33.55
2018-06-04T13:34:34.033Z,33.49
2018-06-04T13:37:03.961Z,33.60
2018-06-04T13:39:34.787Z,33.82
2018-06-04T13:42:05.554Z,33.93
2018-06-04T13:44:36.383Z,34.22
2018-06-04T13:47:06.285Z,34.54
2018-06-04T13:49:36.458Z,34.49
2018-06-04T13:52:07.353Z,34.28
2018-06-04T13:54:38.075Z,34.35
2018-06-04T13:57:07.958Z,34.33
2018-06-04T13:59:37.950Z,34.56
2018-06-04T14:02:08.142Z,34.71
2018-06-04T14:04:38.422Z,34.90
2018-06-04T14:07:08.325Z,34.80
2018-06-04T14:09:38.782Z,35.07
2018-06-04T14:12:09.365Z,34.50
2018-06-04T14:14:39.273Z,34.87
2018-06-04T14:17:09.206Z,34.93
2018-06-04T14:19:39.832Z,34.72
2018-06-04T14:22:09.946Z,34.56
2018-06-04T14:24:39.955Z,34.72
2018-06-04T14:27:10.294Z,34.87
2018-06-04T14:29:40.280Z,35.06
2018-06-04T14:32:10.474Z,35.14
2018-06-04T14:34:40.573Z,35.10
2018-06-04T14:37:10.400Z,35.14
2018-06-04T14:42:09.041Z,35.34
2018-06-04T14:44:39.227Z,35.34
2018-06-04T14:47:09.301Z,35.18
2018-06-04T14:49:40.143Z,35.21
2018-06-04T14:52:10.753Z,34.92
2018-06-04T14:54:41.430Z,34.56
2018-06-04T14:57:11.682Z,34.65
2018-06-04T14:59:42.499Z,34.76
2018-06-04T15:02:12.590Z,34.79
2018-06-04T15:04:42.657Z,34.87
2018-06-04T15:07:14.245Z,34.42
2018-06-04T15:09:44.265Z,34.63
2018-06-04T15:12:14.378Z,34.58
2018-06-04T15:14:44.571Z,34.44
2018-06-04T15:17:15.460Z,34.65
2018-06-04T15:19:45.473Z,34.48
2018-06-04T15:22:15.840Z,34.51
2018-06-04T15:24:45.806Z,34.60
2018-06-04T15:27:16.495Z,34.73
2018-06-04T15:29:47.025Z,34.82
2018-06-04T15:32:21.777Z,34.83
2018-06-04T15:34:51.702Z,34.56
2018-06-04T15:37:22.053Z,34.16
2018-06-04T15:39:51.900Z,34.06
2018-06-04T15:42:21.601Z,34.21
2018-06-04T15:44:51.419Z,34.21
2018-06-04T15:47:21.118Z,34.13
2018-06-04T15:49:50.879Z,34.07
2018-06-04T15:52:21.061Z,34.03
2018-06-04T15:54:50.894Z,34.03
2018-06-04T15:57:20.441Z,34.01
2018-06-04T15:59:51.289Z,33.86
2018-06-04T16:02:22.809Z,33.84
2018-06-04T16:04:53.321Z,33.71
2018-06-04T16:07:24.428Z,33.55
2018-06-04T16:09:55.205Z,33.48
2018-06-04T16:12:26.442Z,33.28
2018-06-04T16:14:57.179Z,33.12
2018-06-04T16:17:28.402Z,33.15
2018-06-04T16:19:58.138Z,33.20
2018-06-04T16:22:29.329Z,33.22
2018-06-04T16:25:00.538Z,33.24
2018-06-04T16:27:31.070Z,33.26
2018-06-04T16:30:02.401Z,33.19
2018-06-04T16:32:33.358Z,33.08
2018-06-04T16:35:04.194Z,33.08
2018-06-04T16:37:35.565Z,33.06
2018-06-04T16:40:06.233Z,33.08
2018-06-04T16:42:37.453Z,33.06
2018-06-04T16:45:08.224Z,32.91
2018-06-04T16:47:39.518Z,32.92
2018-06-04T16:50:10.171Z,32.83
2018-06-04T16:52:41.105Z,32.73
2018-06-04T16:55:13.047Z,32.61
2018-06-04T16:57:43.348Z,32.48
2018-06-04T17:00:13.523Z,32.25
2018-06-04T17:02:44.865Z,32.12
2018-06-04T17:05:15.297Z,32.08
2018-06-04T17:07:46.984Z,31.98
2018-06-04T17:10:17.393Z,31.84
2018-06-04T17:12:47.043Z,31.79
2018-06-04T17:15:18.425Z,31.76
2018-06-04T17:17:49.097Z,31.74
2018-06-04T17:20:20.682Z,31.63
2018-06-04T17:22:51.109Z,31.55
2018-06-04T17:25:22.480Z,31.41
2018-06-04T17:27:53.154Z,31.30
2018-06-04T17:30:24.926Z,31.22
2018-06-04T17:32:55.628Z,31.11
2018-06-04T17:35:26.149Z,31.02
2018-06-04T17:37:57.987Z,30.92
2018-06-04T17:40:28.370Z,30.81
2018-06-04T17:42:59.419Z,30.72
2018-06-04T17:45:30.005Z,30.62
2018-06-04T17:48:01.000Z,30.54
2018-06-04T17:50:32.565Z,30.43
2018-06-04T17:53:03.034Z,30.37
2018-06-04T17:55:33.812Z,30.26
2018-06-04T17:58:05.873Z,30.15
2018-06-04T18:00:35.857Z,30.05
2018-06-04T18:03:06.919Z,29.92
2018-06-04T18:05:37.491Z,29.77
2018-06-04T18:08:08.725Z,29.62
2018-06-04T18:10:39.202Z,29.48
2018-06-04T18:13:10.530Z,29.36
2018-06-04T18:15:41.229Z,29.25
2018-06-04T18:18:12.489Z,29.16
2018-06-04T18:20:43.365Z,29.00
2018-06-04T18:23:16.625Z,28.95
2018-06-04T18:25:46.299Z,28.87
2018-06-04T18:28:16.528Z,28.74
2018-06-04T18:30:47.191Z,28.65
2018-06-04T18:33:17.622Z,28.47
2018-06-04T18:35:48.155Z,28.35
2018-06-04T18:38:19.393Z,28.22
2018-06-04T18:40:50.406Z,28.10
2018-06-04T18:43:20.113Z,28.05
2018-06-04T18:45:51.477Z,27.96
2018-06-04T18:48:22.244Z,27.89
2018-06-04T18:50:53.551Z,27.86
2018-06-04T18:53:24.707Z,27.79
2018-06-04T18:55:55.225Z,27.77
2018-06-04T18:58:26.513Z,27.73
2018-06-04T19:00:57.259Z,27.68
2018-06-04T19:03:28.521Z,27.63
2018-06-04T19:05:59.194Z,27.54
2018-06-04T19:08:31.029Z,27.40
2018-06-04T19:11:02.382Z,27.31
2018-06-04T19:13:32.927Z,27.24
2018-06-04T19:16:04.212Z,27.14
2018-06-04T19:18:34.554Z,27.10
2018-06-04T19:21:05.297Z,27.03
2018-06-04T19:23:37.005Z,26.97
2018-06-04T19:26:07.353Z,26.89
2018-06-04T19:31:16.401Z,26.75
2018-06-04T19:33:46.024Z,26.72
2018-06-04T19:36:16.072Z,26.64
2018-06-04T19:38:45.724Z,26.58
2018-06-04T19:41:15.356Z,26.53
2018-06-04T19:43:45.134Z,26.50
2018-06-04T19:46:15.445Z,26.38
2018-06-04T19:48:46.454Z,26.32
2018-06-04T19:51:17.127Z,26.35
2018-06-04T19:53:48.655Z,26.35
2018-06-04T19:56:19.303Z,26.30
2018-06-04T19:58:50.541Z,26.25
2018-06-04T20:01:21.721Z,26.23
2018-06-04T20:03:52.107Z,26.18
2018-06-04T20:06:23.646Z,26.16
2018-06-04T20:08:54.104Z,26.14
2018-06-04T20:11:25.325Z,26.11
2018-06-04T20:13:56.452Z,26.04
2018-06-04T20:16:27.033Z,26.01
2018-06-04T20:18:58.258Z,25.97
2018-06-04T20:21:28.384Z,25.96
2018-06-04T20:23:59.472Z,25.93
2018-06-04T20:26:30.141Z,25.90
2018-06-04T20:29:01.416Z,25.86
2018-06-04T20:31:32.726Z,25.85
2018-06-04T20:34:03.101Z,25.82
2018-06-04T20:36:34.383Z,25.81
2018-06-04T20:39:07.279Z,25.79
2018-06-04T20:41:37.081Z,25.75
2018-06-04T20:44:07.648Z,25.72
2018-06-04T20:46:38.073Z,25.69
2018-06-04T20:49:09.325Z,25.69
2018-06-04T20:51:39.123Z,25.68
2018-06-04T20:54:10.582Z,25.65
2018-06-04T20:56:40.990Z,25.64
2018-06-04T20:59:12.238Z,25.63
2018-06-04T21:01:43.486Z,25.61
2018-06-04T21:04:13.114Z,25.56
2018-06-04T21:06:44.295Z,25.55
2018-06-04T21:09:15.442Z,25.54
2018-06-04T21:11:46.047Z,25.51
2018-06-04T21:14:17.309Z,25.49
2018-06-04T21:16:48.325Z,25.45
2018-06-04T21:19:19.455Z,25.45
2018-06-04T21:21:50.041Z,25.43
2018-06-04T21:24:21.413Z,25.41
2018-06-04T21:26:51.021Z,25.39
2018-06-04T21:29:22.265Z,25.37
2018-06-04T21:31:52.550Z,25.26
2018-06-04T21:34:23.144Z,25.25
2018-06-04T21:36:54.388Z,25.20
2018-06-04T21:39:25.413Z,25.17
2018-06-04T21:41:56.022Z,25.15
2018-06-04T21:44:27.282Z,25.14
2018-06-04T21:46:58.333Z,25.13
2018-06-04T21:49:29.587Z,25.07
2018-06-04T21:52:00.086Z,25.01
2018-06-04T21:54:31.424Z,24.93
2018-06-04T21:57:02.032Z,24.91
2018-06-04T21:59:33.381Z,24.88
2018-06-04T22:02:04.501Z,24.85
2018-06-04T22:04:35.122Z,24.81
2018-06-04T22:07:06.450Z,24.80
2018-06-04T22:09:37.108Z,24.77
2018-06-04T22:12:08.347Z,24.72
2018-06-04T22:14:39.500Z,24.71
2018-06-04T22:17:10.166Z,24.68
2018-06-04T22:19:41.757Z,24.64
2018-06-04T22:22:12.025Z,24.59
2018-06-04T22:24:43.307Z,24.56
2018-06-04T22:27:14.465Z,24.54
2018-06-04T22:29:45.141Z,24.51
2018-06-04T22:32:16.713Z,24.48
2018-06-04T22:34:47.138Z,24.46
2018-06-04T22:37:18.330Z,24.45
2018-06-04T22:39:49.366Z,24.42
2018-06-04T22:42:20.046Z,24.40
2018-06-04T22:44:51.295Z,24.37
2018-06-04T22:47:21.363Z,24.36
2018-06-04T22:49:52.546Z,24.32
2018-06-04T22:52:23.024Z,24.30
2018-06-04T22:54:54.365Z,24.28
2018-06-04T22:57:25.036Z,24.23
2018-06-04T22:59:56.294Z,24.20
2018-06-04T23:02:27.430Z,24.15
2018-06-04T23:04:58.138Z,24.11
2018-06-04T23:07:29.358Z,24.09
2018-06-04T23:10:00.066Z,24.08
2018-06-04T23:12:31.259Z,24.03
2018-06-04T23:15:02.430Z,23.99
2018-06-04T23:17:33.109Z,23.92
2018-06-04T23:20:04.478Z,23.86
2018-06-04T23:22:35.200Z,23.83
2018-06-04T23:25:06.450Z,23.81
2018-06-04T23:27:36.133Z,23.78
2018-06-04T23:30:07.414Z,23.77
2018-06-04T23:32:38.381Z,23.76
2018-06-04T23:35:09.420Z,23.73
2018-06-04T23:37:40.060Z,23.69
2018-06-04T23:40:11.302Z,23.68
2018-06-04T23:42:42.392Z,23.66
2018-06-04T23:45:13.038Z,23.54
2018-06-04T23:47:44.278Z,23.47
2018-06-04T23:50:15.685Z,23.45
2018-06-04T23:52:46.298Z,23.43
2018-06-04T23:55:17.906Z,23.43
2018-06-04T23:57:48.334Z,23.39
